地図

経路データ

SID SEASON NUMBER BASIN SUBBASIN NAME ISO_TIME NATURE LAT LON WMO_WIND WMO_PRES WMO_AGENCY TRACK_TYPE DIST2LAND LANDFALL IFLAG USA_AGENCY USA_ATCF_ID USA_LAT USA_LON USA_RECORD USA_STATUS USA_WIND USA_PRES USA_SSHS USA_R34_NE USA_R34_SE USA_R34_SW USA_R34_NW USA_R50_NE USA_R50_SE USA_R50_SW USA_R50_NW USA_R64_NE USA_R64_SE USA_R64_SW USA_R64_NW USA_POCI USA_ROCI USA_RMW USA_EYE TOKYO_LAT TOKYO_LON TOKYO_GRADE TOKYO_WIND TOKYO_PRES TOKYO_R50_DIR TOKYO_R50_LONG TOKYO_R50_SHORT TOKYO_R30_DIR TOKYO_R30_LONG TOKYO_R30_SHORT TOKYO_LAND CMA_LAT CMA_LON CMA_CAT CMA_WIND CMA_PRES HKO_LAT HKO_LON HKO_CAT HKO_WIND HKO_PRES NEWDELHI_LAT NEWDELHI_LON NEWDELHI_GRADE NEWDELHI_WIND NEWDELHI_PRES NEWDELHI_CI NEWDELHI_DP NEWDELHI_POCI REUNION_LAT REUNION_LON REUNION_TYPE REUNION_WIND REUNION_PRES REUNION_TNUM REUNION_CI REUNION_RMW REUNION_R34_NE REUNION_R34_SE REUNION_R34_SW REUNION_R34_NW REUNION_R50_NE REUNION_R50_SE REUNION_R50_SW REUNION_R50_NW REUNION_R64_NE REUNION_R64_SE REUNION_R64_SW REUNION_R64_NW BOM_LAT BOM_LON BOM_TYPE BOM_WIND BOM_PRES BOM_TNUM BOM_CI BOM_RMW BOM_R34_NE BOM_R34_SE BOM_R34_SW BOM_R34_NW BOM_R50_NE BOM_R50_SE BOM_R50_SW BOM_R50_NW BOM_R64_NE BOM_R64_SE BOM_R64_SW BOM_R64_NW BOM_ROCI BOM_POCI BOM_EYE BOM_POS_METHOD BOM_PRES_METHOD NADI_LAT NADI_LON NADI_CAT NADI_WIND NADI_PRES WELLINGTON_LAT WELLINGTON_LON WELLINGTON_WIND WELLINGTON_PRES DS824_LAT DS824_LON DS824_STAGE DS824_WIND DS824_PRES TD9636_LAT TD9636_LON TD9636_STAGE TD9636_WIND TD9636_PRES TD9635_LAT TD9635_LON TD9635_WIND TD9635_PRES TD9635_ROCI NEUMANN_LAT NEUMANN_LON NEUMANN_CLASS NEUMANN_WIND NEUMANN_PRES MLC_LAT MLC_LON MLC_CLASS MLC_WIND MLC_PRES USA_GUST BOM_GUST BOM_GUST_PER REUNION_GUST REUNION_GUST_PER USA_SEAHGT USA_SEARAD_NE USA_SEARAD_SE USA_SEARAD_SW USA_SEARAD_NW STORM_SPEED STORM_DIR
1996170N27282 1996 43 NA NA ARTHUR 1996-06-17 18:00:00 TS 26.8000 -77.8000 25 1010 hurdat_atl main 190 190 O_____________ hurdat_atl AL011996 26.8000 -77.8000 TD 25 1010 -1 10 335
1996170N27282 1996 43 NA NA ARTHUR 1996-06-17 21:00:00 TS 27.2550 -78.0373 main 205 189 P_____________ AL011996 27.2550 -78.0373 TD 25 1010 -1 10 334
1996170N27282 1996 43 NA NA ARTHUR 1996-06-18 00:00:00 TS 27.7000 -78.3000 25 1010 hurdat_atl main 194 184 O_____________ hurdat_atl AL011996 27.7000 -78.3000 TD 25 1010 -1 10 331
1996170N27282 1996 43 NA NA ARTHUR 1996-06-18 03:00:00 TS 28.1351 -78.5873 main 184 165 P_____________ AL011996 28.1351 -78.5873 TD 25 1009 -1 10 334
1996170N27282 1996 43 NA NA ARTHUR 1996-06-18 06:00:00 TS 28.6000 -78.8000 25 1009 hurdat_atl main 166 166 O_____________ hurdat_atl AL011996 28.6000 -78.8000 TD 25 1009 -1 10 347
1996170N27282 1996 43 NA NA ARTHUR 1996-06-18 09:00:00 TS 29.1499 -78.8454 main 178 178 P_____________ AL011996 29.1499 -78.8454 TD 25 1008 -1 11 0
1996170N27282 1996 43 NA NA ARTHUR 1996-06-18 12:00:00 TS 29.7000 -78.8000 25 1008 hurdat_atl main 212 212 O_____________ hurdat_atl AL011996 29.7000 -78.8000 TD 25 1008 -1 10 4
1996170N27282 1996 43 NA NA ARTHUR 1996-06-18 15:00:00 TS 30.1650 -78.7502 main 236 236 P_____________ AL011996 30.1650 -78.7502 TD 27 1008 -1 9 5
1996170N27282 1996 43 NA NA ARTHUR 1996-06-18 18:00:00 TS 30.6000 -78.7000 30 1008 hurdat_atl main 254 216 O_____________ hurdat_atl AL011996 30.6000 -78.7000 TD 30 1008 -1 9 3
1996170N27282 1996 43 NA NA ARTHUR 1996-06-18 21:00:00 TS 31.0575 -78.6998 main 207 173 P_____________ AL011996 31.0575 -78.6998 TD 32 1006 -1 9 0
1996170N27282 1996 43 NA NA ARTHUR 1996-06-19 00:00:00 TS 31.5000 -78.7000 35 1004 hurdat_atl main 173 139 O_____________ hurdat_atl AL011996 31.5000 -78.7000 TS 35 1004 0 8 0
1996170N27282 1996 43 NA NA ARTHUR 1996-06-19 03:00:00 TS 31.8999 -78.6871 main 139 108 P_____________ AL011996 31.8999 -78.6871 TS 35 1005 0 8 6
1996170N27282 1996 43 NA NA ARTHUR 1996-06-19 06:00:00 TS 32.3000 -78.6000 35 1006 hurdat_atl main 108 85 O_____________ hurdat_atl AL011996 32.3000 -78.6000 TS 35 1006 0 9 16
1996170N27282 1996 43 NA NA ARTHUR 1996-06-19 09:00:00 TS 32.7574 -78.4026 main 86 78 P_____________ AL011996 32.7574 -78.4026 TS 37 1005 0 10 25
1996170N27282 1996 43 NA NA ARTHUR 1996-06-19 12:00:00 TS 33.2000 -78.1000 40 1005 hurdat_atl main 78 48 O_____________ hurdat_atl AL011996 33.2000 -78.1000 TS 40 1005 0 10 35
1996170N27282 1996 43 NA NA ARTHUR 1996-06-19 15:00:00 TS 33.5575 -77.7296 main 43 43 P_____________ AL011996 33.5575 -77.7296 TS 40 1005 0 10 44
1996170N27282 1996 43 NA NA ARTHUR 1996-06-19 18:00:00 TS 33.9000 -77.3000 40 1005 hurdat_atl main 56 44 O_____________ hurdat_atl AL011996 33.9000 -77.3000 TS 40 1005 0 10 44
1996170N27282 1996 43 NA NA ARTHUR 1996-06-19 21:00:00 TS 34.2923 -76.8647 main 44 0 P_____________ AL011996 34.2923 -76.8647 TS 37 1005 0 11 43
1996170N27282 1996 43 NA NA ARTHUR 1996-06-20 00:00:00 TS 34.7000 -76.4000 35 1005 hurdat_atl main 9 9 O_____________ hurdat_atl AL011996 34.7000 -76.4000 L TS 35 1005 0 11 44
1996170N27282 1996 43 NA NA ARTHUR 1996-06-20 03:00:00 TS 35.0921 -75.9291 main 35 21 P_____________ AL011996 35.0921 -75.9291 TS 35 1005 0 11 46
1996170N27282 1996 43 NA NA ARTHUR 1996-06-20 06:00:00 TS 35.5000 -75.4000 35 1005 hurdat_atl main 29 28 O_____________ hurdat_atl AL011996 35.5000 -75.4000 TS 35 1005 0 13 46
1996170N27282 1996 43 NA NA ARTHUR 1996-06-20 09:00:00 TS 35.9721 -74.7953 main 66 66 P_____________ AL011996 35.9721 -74.7953 TS 32 1005 -1 14 49
1996170N27282 1996 43 NA NA ARTHUR 1996-06-20 12:00:00 TS 36.4000 -74.1000 30 1005 hurdat_atl main 141 141 O_____________ hurdat_atl AL011996 36.4000 -74.1000 TD 30 1005 -1 14 58
1996170N27282 1996 43 NA NA ARTHUR 1996-06-20 15:00:00 TS 36.6864 -73.3662 main 211 211 P_____________ AL011996 36.6864 -73.3662 TD 30 1004 -1 14 69
1996170N27282 1996 43 NA NA ARTHUR 1996-06-20 18:00:00 TS 36.9000 -72.5000 30 1004 hurdat_atl main 276 276 O_____________ hurdat_atl AL011996 36.9000 -72.5000 TD 30 1004 -1 15 73
1996170N27282 1996 43 NA NA ARTHUR 1996-06-20 21:00:00 TS 37.1334 -71.5652 main 334 334 P_____________ AL011996 37.1334 -71.5652 TD 30 1003 -1 18 77
1996170N27282 1996 43 NA NA ARTHUR 1996-06-21 00:00:00 TS 37.3000 -70.3000 30 1003 hurdat_atl main 425 425 O_____________ hurdat_atl AL011996 37.3000 -70.3000 TD 30 1003 -1 24 86
1996170N27282 1996 43 NA NA ARTHUR 1996-06-21 03:00:00 TS 37.3141 -68.5689 main 500 500 P_____________ AL011996 37.3141 -68.5689 TD 30 1002 -1 30 90
1996170N27282 1996 43 NA NA ARTHUR 1996-06-21 06:00:00 TS 37.3000 -66.5000 30 1002 hurdat_atl main 573 573 O_____________ hurdat_atl AL011996 37.3000 -66.5000 TD 30 1002 -1 33 89
1996170N27282 1996 43 NA NA ARTHUR 1996-06-21 09:00:00 TS 37.3700 -64.3984 main 676 676 P_____________ AL011996 37.3700 -64.3984 TD 32 1001 -1 36 87
1996170N27282 1996 43 NA NA ARTHUR 1996-06-21 12:00:00 ET 37.5000 -62.0000 35 1001 hurdat_atl main 723 723 O_____________ hurdat_atl AL011996 37.5000 -62.0000 EX 35 1001 -4 41 87
1996170N27282 1996 43 NA NA ARTHUR 1996-06-21 15:00:00 ET 37.6128 -59.1858 main 833 833 P_____________ AL011996 37.6128 -59.1858 EX 40 1000 -4 46 86
1996170N27282 1996 43 NA NA ARTHUR 1996-06-21 18:00:00 ET 37.8000 -56.2000 45 1000 hurdat_atl main 917 917 O_____________ hurdat_atl AL011996 37.8000 -56.2000 EX 45 1000 -4 48 85
1996170N27282 1996 43 NA NA ARTHUR 1996-06-21 21:00:00 ET 38.0630 -53.1769 main 945 925 P_____________ AL011996 38.0630 -53.1769 EX 45 999 -4 45 81
1996170N27282 1996 43 NA NA ARTHUR 1996-06-22 00:00:00 ET 38.5000 -50.5000 45 998 hurdat_atl main 927 899 O_____________ hurdat_atl AL011996 38.5000 -50.5000 EX 45 998 -4 37 72
1996170N27282 1996 43 NA NA ARTHUR 1996-06-22 03:00:00 ET 39.2141 -48.6227 main 903 880 P_____________ AL011996 39.2141 -48.6227 EX 45 996 -4 31 61
1996170N27282 1996 43 NA NA ARTHUR 1996-06-22 06:00:00 ET 40.0000 -47.0000 45 995 hurdat_atl main 887 887 O_____________ hurdat_atl AL011996 40.0000 -47.0000 EX 45 995 -4 31 65
1996170N27282 1996 43 NA NA ARTHUR 1996-06-22 09:00:00 ET 40.5019 -44.9564 main 944 944 P_____________ AL011996 40.5019 -44.9564 EX 45 994 -4 32 72
1996170N27282 1996 43 NA NA ARTHUR 1996-06-22 12:00:00 ET 41.0000 -43.0000 45 993 hurdat_atl main 1024 1024 O_____________ hurdat_atl AL011996 41.0000 -43.0000 EX 45 993 -4 29 66
1996170N27282 1996 43 NA NA ARTHUR 1996-06-22 15:00:00 ET 41.7073 -41.4224 main 1079 1079 P_____________ AL011996 41.7073 -41.4224 EX 45 992 -4 27 56
1996170N27282 1996 43 NA NA ARTHUR 1996-06-22 18:00:00 ET 42.5000 -40.0000 45 992 hurdat_atl main 1128 1128 O_____________ hurdat_atl AL011996 42.5000 -40.0000 EX 45 992 -4 26 54
1996170N27282 1996 43 NA NA ARTHUR 1996-06-22 21:00:00 ET 43.2681 -38.5322 main 1189 1189 P_____________ AL011996 43.2681 -38.5322 EX 45 994 -4 26 56
1996170N27282 1996 43 NA NA ARTHUR 1996-06-23 00:00:00 ET 44.0000 -37.0000 45 996 hurdat_atl main 1264 O_____________ hurdat_atl AL011996 44.0000 -37.0000 EX 45 996 -4 26 56

IBTrACS Databaseについて

本データベースは、米国NOAAが公開する1842年以降の世界の熱帯低気圧のベストトラックデータアーカイブInternational Best Track Archive for Climate Stewardship (IBTrACS)を、ウェブで閲覧しやすい形式に変換したものです。

最終更新日:2021-10-21